Time;durP1;ratioP1;P1;durP2;ratioP2;P2;SDS_P1;SDS_P2;PMS_P1;PMS_P2;Temp;Humidity;BMP_temperature;BMP_pressure;BME280_temperature;BME280_humidity;BME280_pressure;Samples;Min_cycle;Max_cycle;Signal;HPM_P1;HPM_P2
2022/04/06 00:01:20;;;;;;;41.65;8.07;;;;;;;;;;4950663;28;94260;-63
2022/04/06 00:03:47;;;;;;;29.30;8.07;;;;;;;;;;4955483;28;93474;-62
2022/04/06 00:06:13;;;;;;;28.50;7.75;;;;;;;;;;4955097;28;92717;-63
2022/04/06 00:08:57;;;;;;;23.35;8.10;;;;;;;;;;4958108;28;93151;-63
2022/04/06 00:11:23;;;;;;;31.67;7.78;;;;;;;;;;4955364;28;92500;-63
2022/04/06 00:13:50;;;;;;;39.17;8.70;;;;;;;;;;4955358;28;93074;-63
2022/04/06 00:16:16;;;;;;;32.70;8.52;;;;;;;;;;4964240;28;92580;-63
2022/04/06 00:18:43;;;;;;;30.17;8.85;;;;;;;;;;4955897;28;92455;-63
2022/04/06 00:21:10;;;;;;;28.73;8.35;;;;;;;;;;4954790;28;93376;-63
2022/04/06 00:23:37;;;;;;;39.75;9.25;;;;;;;;;;4953378;28;95835;-63
2022/04/06 00:26:03;;;;;;;34.45;9.05;;;;;;;;;;4955294;28;92384;-63
2022/04/06 00:28:30;;;;;;;31.20;7.95;;;;;;;;;;4955548;28;92844;-63
2022/04/06 00:30:56;;;;;;;30.13;8.95;;;;;;;;;;4958577;28;93786;-64
2022/04/06 00:33:23;;;;;;;28.42;8.05;;;;;;;;;;4955581;28;93372;-63
2022/04/06 00:35:51;;;;;;;34.70;9.13;;;;;;;;;;4954801;28;93350;-65
2022/04/06 00:38:17;;;;;;;35.92;8.70;;;;;;;;;;4955202;28;92519;-63
2022/04/06 00:40:43;;;;;;;31.52;8.55;;;;;;;;;;4952328;28;93504;-63
2022/04/06 00:43:13;;;;;;;27.83;8.82;;;;;;;;;;4953879;28;93446;-63
2022/04/06 00:45:40;;;;;;;25.77;8.67;;;;;;;;;;4955803;28;92640;-63
2022/04/06 00:48:06;;;;;;;36.17;8.55;;;;;;;;;;4953519;28;94859;-63
2022/04/06 00:50:33;;;;;;;40.33;9.25;;;;;;;;;;4956584;28;93520;-63
2022/04/06 00:52:59;;;;;;;39.95;8.27;;;;;;;;;;4955348;28;93213;-63
2022/04/06 00:55:28;;;;;;;36.28;9.50;;;;;;;;;;4955158;28;93257;-62
2022/04/06 00:57:55;;;;;;;25.55;8.18;;;;;;;;;;4955104;28;92555;-63
2022/04/06 01:00:21;;;;;;;45.03;9.40;;;;;;;;;;4955193;28;94297;-63
2022/04/06 01:02:47;;;;;;;34.40;9.35;;;;;;;;;;4953852;28;93298;-63
2022/04/06 01:05:14;;;;;;;32.72;8.57;;;;;;;;;;4954994;28;91691;-63
2022/04/06 01:07:42;;;;;;;30.77;7.90;;;;;;;;;;4954024;28;92566;-63
2022/04/06 01:10:08;;;;;;;36.92;8.80;;;;;;;;;;4951162;28;93429;-63
2022/04/06 01:12:38;;;;;;;28.50;8.57;;;;;;;;;;4955641;28;95122;-63
2022/04/06 01:15:05;;;;;;;30.20;9.25;;;;;;;;;;4953642;28;94499;-62
2022/04/06 01:17:33;;;;;;;28.35;8.27;;;;;;;;;;4946178;28;92675;-63
2022/04/06 01:20:03;;;;;;;30.45;8.50;;;;;;;;;;4954170;28;93240;-63
2022/04/06 01:22:29;;;;;;;37.85;8.80;;;;;;;;;;4954185;28;92501;-63
2022/04/06 01:24:55;;;;;;;27.42;8.85;;;;;;;;;;4954282;28;92712;-63
2022/04/06 01:27:22;;;;;;;32.63;8.60;;;;;;;;;;4954793;28;92966;-63
2022/04/06 01:29:48;;;;;;;37.30;8.20;;;;;;;;;;4954545;28;92674;-63
2022/04/06 01:32:17;;;;;;;28.25;7.63;;;;;;;;;;4953772;28;93884;-63
2022/04/06 01:34:44;;;;;;;30.38;7.50;;;;;;;;;;4957686;28;92864;-63
2022/04/06 01:37:11;;;;;;;36.10;8.23;;;;;;;;;;4953109;28;94868;-63
2022/04/06 01:39:38;;;;;;;27.00;7.78;;;;;;;;;;4954527;28;95646;-63
2022/04/06 01:42:06;;;;;;;34.30;8.50;;;;;;;;;;4953903;28;93145;-63
2022/04/06 01:44:32;;;;;;;21.38;6.93;;;;;;;;;;4953679;28;93061;-63
2022/04/06 01:46:59;;;;;;;34.58;8.48;;;;;;;;;;4953919;28;93210;-63
2022/04/06 01:52:13;;;;;;;29.08;7.15;;;;;;;;;;4953928;28;92524;-64
2022/04/06 01:54:43;;;;;;;30.23;6.63;;;;;;;;;;4955065;28;94101;-63
2022/04/06 01:57:10;;;;;;;;;;;;;;;;;;4957386;28;94392;-64
2022/04/06 01:59:36;;;;;;;26.40;6.90;;;;;;;;;;4955291;28;122748;-63
2022/04/06 02:02:03;;;;;;;28.83;6.80;;;;;;;;;;4952339;28;94872;-63
2022/04/06 02:04:30;;;;;;;28.90;7.88;;;;;;;;;;4957405;28;94608;-63
2022/04/06 02:06:56;;;;;;;23.52;6.60;;;;;;;;;;4957198;28;94137;-63
2022/04/06 02:09:22;;;;;;;29.45;7.07;;;;;;;;;;4956488;28;93263;-63
2022/04/06 02:11:49;;;;;;;28.77;7.38;;;;;;;;;;4957149;28;92405;-63
2022/04/06 02:14:16;;;;;;;25.33;6.82;;;;;;;;;;4957438;28;92966;-64
2022/04/06 02:16:43;;;;;;;24.20;6.05;;;;;;;;;;4956718;28;93272;-63
2022/04/06 02:19:09;;;;;;;29.60;7.20;;;;;;;;;;4961448;28;91658;-62
2022/04/06 02:21:36;;;;;;;34.65;6.75;;;;;;;;;;4956950;28;93619;-63
2022/04/06 02:24:02;;;;;;;25.33;7.10;;;;;;;;;;4957457;28;92482;-64
2022/04/06 02:26:28;;;;;;;29.88;6.53;;;;;;;;;;4955709;28;94856;-63
2022/04/06 02:28:55;;;;;;;28.20;7.13;;;;;;;;;;4957388;28;94467;-63
2022/04/06 02:31:21;;;;;;;29.25;6.07;;;;;;;;;;4956911;28;92574;-62
2022/04/06 02:33:48;;;;;;;19.98;6.05;;;;;;;;;;4957192;28;93486;-64
2022/04/06 02:36:14;;;;;;;20.90;6.57;;;;;;;;;;4957542;28;93468;-63
2022/04/06 02:38:40;;;;;;;22.70;5.65;;;;;;;;;;4957378;28;92736;-63
2022/04/06 02:41:07;;;;;;;27.50;5.90;;;;;;;;;;4960177;28;93852;-63
2022/04/06 02:43:34;;;;;;;19.27;5.28;;;;;;;;;;4956702;28;91741;-63
2022/04/06 02:46:01;;;;;;;26.95;5.80;;;;;;;;;;4957044;28;93203;-63
2022/04/06 02:48:28;;;;;;;17.30;4.43;;;;;;;;;;4957399;28;94594;-63
2022/04/06 02:50:54;;;;;;;20.02;5.05;;;;;;;;;;4955592;28;94910;-63
2022/04/06 02:53:21;;;;;;;19.85;5.03;;;;;;;;;;4956730;28;95386;-65
2022/04/06 02:55:48;;;;;;;21.67;4.65;;;;;;;;;;4957322;28;93371;-63
2022/04/06 02:58:15;;;;;;;23.30;5.28;;;;;;;;;;4956773;28;92452;-63
2022/04/06 03:00:41;;;;;;;14.63;4.05;;;;;;;;;;4958461;28;92993;-63
2022/04/06 03:03:07;;;;;;;16.92;4.25;;;;;;;;;;4956674;28;92499;-63
2022/04/06 03:05:34;;;;;;;17.73;4.35;;;;;;;;;;4956724;28;93002;-63
2022/04/06 03:08:00;;;;;;;14.45;3.38;;;;;;;;;;4955868;28;92526;-62
2022/04/06 03:10:26;;;;;;;19.52;3.53;;;;;;;;;;4956724;28;92957;-63
2022/04/06 03:12:53;;;;;;;13.13;3.22;;;;;;;;;;4955486;28;94178;-63
2022/04/06 03:15:23;;;;;;;;;;;;;;;;;;4954250;28;95824;-63
2022/04/06 03:17:49;;;;;;;14.10;2.85;;;;;;;;;;4957461;28;118631;-63
2022/04/06 03:20:16;;;;;;;15.25;3.00;;;;;;;;;;4955557;28;93229;-63
2022/04/06 03:22:42;;;;;;;15.55;2.75;;;;;;;;;;4959352;28;94261;-63
2022/04/06 03:25:09;;;;;;;20.50;3.17;;;;;;;;;;4956112;28;94106;-63
2022/04/06 03:27:36;;;;;;;21.33;3.58;;;;;;;;;;4956509;28;94395;-63
2022/04/06 03:30:04;;;;;;;11.25;2.63;;;;;;;;;;4956438;28;92479;-63
2022/04/06 03:32:30;;;;;;;14.48;3.15;;;;;;;;;;4957001;28;93031;-65
2022/04/06 03:34:57;;;;;;;18.65;2.97;;;;;;;;;;4956888;28;94747;-63
2022/04/06 03:37:24;;;;;;;13.65;2.50;;;;;;;;;;4956285;28;92460;-63
2022/04/06 03:39:50;;;;;;;12.02;3.03;;;;;;;;;;4968410;28;94787;-64
2022/04/06 03:42:16;;;;;;;13.55;2.72;;;;;;;;;;4957671;28;93289;-63
2022/04/06 03:44:43;;;;;;;14.75;3.38;;;;;;;;;;4969948;28;92525;-63
2022/04/06 03:47:09;;;;;;;16.95;2.45;;;;;;;;;;4956767;28;92919;-63
2022/04/06 03:49:35;;;;;;;13.32;2.40;;;;;;;;;;4956004;28;93660;-64
2022/04/06 03:52:02;;;;;;;10.05;2.35;;;;;;;;;;4956248;28;93990;-63
2022/04/06 03:54:28;;;;;;;10.20;2.60;;;;;;;;;;4955684;28;94411;-63
2022/04/06 03:56:54;;;;;;;14.63;2.33;;;;;;;;;;4956610;28;92115;-63
2022/04/06 03:59:21;;;;;;;11.05;2.58;;;;;;;;;;4955837;28;92572;-63
2022/04/06 04:01:47;;;;;;;15.27;2.10;;;;;;;;;;4953747;28;94541;-63
2022/04/06 04:04:13;;;;;;;14.95;2.30;;;;;;;;;;4953532;28;95196;-63
2022/04/06 04:06:40;;;;;;;13.90;2.38;;;;;;;;;;4957350;28;96070;-63
2022/04/06 04:09:07;;;;;;;8.85;2.60;;;;;;;;;;4955293;28;92455;-63
2022/04/06 04:11:36;;;;;;;11.85;2.00;;;;;;;;;;4963303;28;92981;-64
2022/04/06 04:14:02;;;;;;;10.80;1.92;;;;;;;;;;4955501;28;93220;-63
2022/04/06 04:16:28;;;;;;;7.75;1.92;;;;;;;;;;4955741;28;92541;-63
2022/04/06 04:18:55;;;;;;;13.95;2.25;;;;;;;;;;4955566;28;94290;-63
2022/04/06 04:21:33;;;;;;;15.30;2.75;;;;;;;;;;4956201;28;92556;-63
2022/04/06 04:24:04;;;;;;;19.60;2.83;;;;;;;;;;4948328;28;92829;-63
2022/04/06 04:26:30;;;;;;;;;;;;;;;;;;4956221;28;92985;-63
2022/04/06 04:28:56;;;;;;;7.57;1.85;;;;;;;;;;4957432;28;126249;-62
2022/04/06 04:31:23;;;;;;;17.55;2.65;;;;;;;;;;4955475;28;96737;-64
2022/04/06 04:33:49;;;;;;;12.02;2.20;;;;;;;;;;4955117;28;93185;-63
2022/04/06 04:36:16;;;;;;;12.80;2.55;;;;;;;;;;4955440;28;92491;-63
2022/04/06 04:38:43;;;;;;;9.85;2.10;;;;;;;;;;4955467;28;94227;-63
2022/04/06 04:41:09;;;;;;;21.95;2.95;;;;;;;;;;4947655;28;94279;-63
2022/04/06 04:43:36;;;;;;;8.48;2.45;;;;;;;;;;4954876;28;92446;-63
2022/04/06 04:46:03;;;;;;;14.20;2.63;;;;;;;;;;4955190;28;92891;-63
2022/04/06 04:48:30;;;;;;;15.75;2.58;;;;;;;;;;4955567;28;93606;-63
2022/04/06 04:50:56;;;;;;;13.40;2.13;;;;;;;;;;4958241;28;92542;-63
2022/04/06 04:53:23;;;;;;;6.72;2.22;;;;;;;;;;4953082;28;95938;-63
2022/04/06 04:55:50;;;;;;;11.75;2.28;;;;;;;;;;4955292;28;92451;-63
2022/04/06 04:58:16;;;;;;;8.77;2.42;;;;;;;;;;4950868;28;93430;-62
2022/04/06 05:00:43;;;;;;;11.52;2.53;;;;;;;;;;4954420;28;93421;-63
2022/04/06 05:03:09;;;;;;;15.18;3.05;;;;;;;;;;4966159;28;92438;-63
2022/04/06 05:05:37;;;;;;;12.55;2.63;;;;;;;;;;4955361;28;94181;-63
2022/04/06 05:08:04;;;;;;;18.92;3.17;;;;;;;;;;4954870;28;93440;-63
2022/04/06 05:10:30;;;;;;;20.95;2.92;;;;;;;;;;4959068;28;91777;-63
2022/04/06 05:12:56;;;;;;;11.38;2.75;;;;;;;;;;4954406;28;93071;-63
2022/04/06 05:15:23;;;;;;;11.98;2.40;;;;;;;;;;4955785;28;92492;-63
2022/04/06 05:17:49;;;;;;;18.33;3.22;;;;;;;;;;4953063;28;94790;-67
2022/04/06 05:20:16;;;;;;;27.00;3.38;;;;;;;;;;4955102;28;93386;-64
2022/04/06 05:22:42;;;;;;;12.32;2.72;;;;;;;;;;4954992;28;92463;-63
2022/04/06 05:25:08;;;;;;;16.88;3.00;;;;;;;;;;4953231;28;92945;-63
2022/04/06 05:27:44;;;;;;;15.57;3.00;;;;;;;;;;4953877;28;94446;-62
2022/04/06 05:30:12;;;;;;;22.98;3.67;;;;;;;;;;4946153;28;92436;-62
2022/04/06 05:32:38;;;;;;;15.23;3.13;;;;;;;;;;4955942;28;93226;-62
2022/04/06 05:35:06;;;;;;;12.43;2.70;;;;;;;;;;4955040;28;91692;-63
2022/04/06 05:37:33;;;;;;;17.55;3.45;;;;;;;;;;4954580;28;92486;-63
2022/04/06 05:40:00;;;;;;;15.07;3.30;;;;;;;;;;4954317;28;94544;-62
2022/04/06 05:42:26;;;;;;;16.77;3.13;;;;;;;;;;4940633;28;95295;-62
2022/04/06 05:44:52;;;;;;;15.73;3.20;;;;;;;;;;4954020;28;93888;-63
2022/04/06 05:47:19;;;;;;;20.25;4.40;;;;;;;;;;4954348;28;92506;-63
2022/04/06 05:49:45;;;;;;;18.90;4.45;;;;;;;;;;4954159;28;92521;-61
2022/04/06 05:52:11;;;;;;;17.75;4.30;;;;;;;;;;4954773;28;93101;-61
2022/04/06 05:54:37;;;;;;;14.00;4.18;;;;;;;;;;4956695;28;94501;-62
2022/04/06 05:57:04;;;;;;;18.27;4.15;;;;;;;;;;4953771;28;93835;-62
2022/04/06 05:59:30;;;;;;;16.83;4.38;;;;;;;;;;4954793;28;91730;-62
2022/04/06 06:01:56;;;;;;;26.73;5.05;;;;;;;;;;4968547;28;92928;-61
2022/04/06 06:04:23;;;;;;;16.75;4.38;;;;;;;;;;4951909;28;94147;-62
2022/04/06 06:06:49;;;;;;;28.27;5.72;;;;;;;;;;4951025;28;95545;-62
2022/04/06 06:09:16;;;;;;;26.23;4.88;;;;;;;;;;4953967;28;92536;-63
2022/04/06 06:11:42;;;;;;;22.77;5.00;;;;;;;;;;4953814;28;93452;-63
2022/04/06 06:14:08;;;;;;;18.23;4.65;;;;;;;;;;4953365;28;94299;-64
2022/04/06 06:16:34;;;;;;;25.65;4.82;;;;;;;;;;4957074;28;92479;-62
2022/04/06 06:19:01;;;;;;;18.42;4.00;;;;;;;;;;4953411;28;93255;-61
2022/04/06 06:21:31;;;;;;;18.55;3.90;;;;;;;;;;4953846;28;92542;-62
2022/04/06 06:24:02;;;;;;;18.00;4.57;;;;;;;;;;4954031;28;93250;-62
2022/04/06 06:26:28;;;;;;;18.10;4.95;;;;;;;;;;4954004;28;93143;-62
2022/04/06 06:28:55;;;;;;;27.60;4.47;;;;;;;;;;4953184;28;92472;-64
2022/04/06 06:31:21;;;;;;;21.10;3.50;;;;;;;;;;4952374;28;94876;-63
2022/04/06 06:33:47;;;;;;;16.20;3.63;;;;;;;;;;4953559;28;93442;-63
2022/04/06 06:36:14;;;;;;;19.17;4.22;;;;;;;;;;4952170;28;94001;-63
2022/04/06 06:38:40;;;;;;;17.65;2.85;;;;;;;;;;4961777;28;92608;-63
2022/04/06 06:41:06;;;;;;;16.88;3.38;;;;;;;;;;4954044;28;92495;-63
2022/04/06 06:43:32;;;;;;;14.30;2.78;;;;;;;;;;4949013;28;92816;-63
2022/04/06 06:45:59;;;;;;;19.60;3.35;;;;;;;;;;4949859;28;94502;-62
2022/04/06 06:48:25;;;;;;;16.77;2.47;;;;;;;;;;4956433;28;91787;-62
2022/04/06 06:50:51;;;;;;;13.48;2.92;;;;;;;;;;4957227;28;92704;-62
2022/04/06 06:53:17;;;;;;;17.55;3.08;;;;;;;;;;4956731;28;93550;-61
2022/04/06 06:55:44;;;;;;;15.48;3.42;;;;;;;;;;4955483;28;94944;-62
2022/04/06 06:58:10;;;;;;;18.00;2.78;;;;;;;;;;4959996;28;96490;-62
2022/04/06 07:00:36;;;;;;;12.73;2.67;;;;;;;;;;4957059;28;92421;-61
2022/04/06 07:03:02;;;;;;;10.63;2.17;;;;;;;;;;4956957;28;93223;-61
2022/04/06 07:05:29;;;;;;;9.75;2.47;;;;;;;;;;4956344;28;93221;-62
2022/04/06 07:07:56;;;;;;;11.75;2.35;;;;;;;;;;4956406;28;92424;-61
2022/04/06 07:10:24;;;;;;;15.00;2.67;;;;;;;;;;4955176;28;94534;-62
2022/04/06 07:12:50;;;;;;;13.02;2.40;;;;;;;;;;4957073;28;93696;-61
2022/04/06 07:15:17;;;;;;;8.82;2.20;;;;;;;;;;4956295;28;92532;-61
2022/04/06 07:17:43;;;;;;;12.45;2.40;;;;;;;;;;4956792;28;93266;-61
2022/04/06 07:20:10;;;;;;;9.13;2.13;;;;;;;;;;4957767;28;94873;-61
2022/04/06 07:22:37;;;;;;;10.52;2.70;;;;;;;;;;4955271;28;95130;-61
2022/04/06 07:25:03;;;;;;;6.57;2.42;;;;;;;;;;4956530;28;93522;-62
2022/04/06 07:27:33;;;;;;;15.15;2.28;;;;;;;;;;4956464;28;92783;-62
2022/04/06 07:29:59;;;;;;;16.60;2.40;;;;;;;;;;4949313;28;93999;-61
2022/04/06 07:32:25;;;;;;;11.07;2.38;;;;;;;;;;4942030;28;94218;-61
2022/04/06 07:34:52;;;;;;;14.35;2.20;;;;;;;;;;4956179;28;92477;-61
2022/04/06 07:37:18;;;;;;;11.90;2.78;;;;;;;;;;4957425;28;92994;-61
2022/04/06 07:39:44;;;;;;;6.55;1.85;;;;;;;;;;4956466;28;94271;-62
2022/04/06 07:42:10;;;;;;;14.35;2.38;;;;;;;;;;4958438;28;93261;-61
2022/04/06 07:44:37;;;;;;;14.88;2.80;;;;;;;;;;4954824;28;95867;-61
2022/04/06 07:47:03;;;;;;;11.73;2.15;;;;;;;;;;4956389;28;92524;-61
2022/04/06 07:49:29;;;;;;;14.90;2.55;;;;;;;;;;4956578;28;94264;-61
2022/04/06 07:51:55;;;;;;;9.07;1.88;;;;;;;;;;4956242;28;93217;-61
2022/04/06 07:54:22;;;;;;;8.35;2.55;;;;;;;;;;4956004;28;92484;-61
2022/04/06 07:56:48;;;;;;;13.07;2.75;;;;;;;;;;4956013;28;92933;-61
2022/04/06 07:59:14;;;;;;;7.55;2.03;;;;;;;;;;4955782;28;93377;-61
2022/04/06 08:01:40;;;;;;;15.30;3.00;;;;;;;;;;4956195;28;92046;-61
2022/04/06 08:04:07;;;;;;;16.02;2.83;;;;;;;;;;4959374;28;94012;-61
2022/04/06 08:06:34;;;;;;;12.88;2.47;;;;;;;;;;4952255;28;92506;-61
2022/04/06 08:09:02;;;;;;;16.30;2.83;;;;;;;;;;4954377;28;94820;-61
2022/04/06 08:11:28;;;;;;;13.23;2.65;;;;;;;;;;4956036;28;93249;-62
2022/04/06 08:13:55;;;;;;;13.77;3.05;;;;;;;;;;4956094;28;92599;-61
2022/04/06 08:16:21;;;;;;;8.57;2.38;;;;;;;;;;4955123;28;92858;-61
2022/04/06 08:18:47;;;;;;;14.85;3.08;;;;;;;;;;4954921;28;93421;-61
2022/04/06 08:21:14;;;;;;;15.88;2.58;;;;;;;;;;4956294;28;92499;-61
2022/04/06 08:23:40;;;;;;;14.35;2.90;;;;;;;;;;4956070;28;92968;-61
2022/04/06 08:26:06;;;;;;;9.25;2.50;;;;;;;;;;4959071;28;92694;-61
2022/04/06 08:28:33;;;;;;;17.00;2.95;;;;;;;;;;4955118;28;92535;-61
2022/04/06 08:30:59;;;;;;;11.20;2.55;;;;;;;;;;4953286;28;93521;-61
2022/04/06 08:33:25;;;;;;;17.52;2.67;;;;;;;;;;4954199;28;94830;-61
2022/04/06 08:35:53;;;;;;;17.75;3.00;;;;;;;;;;4955660;28;95526;-61
2022/04/06 08:38:19;;;;;;;17.73;3.13;;;;;;;;;;4955406;28;92970;-61
2022/04/06 08:40:47;;;;;;;15.65;3.20;;;;;;;;;;4955696;28;92508;-60
2022/04/06 08:43:17;;;;;;;15.27;2.80;;;;;;;;;;4955756;28;93148;-61
2022/04/06 08:45:44;;;;;;;11.98;2.33;;;;;;;;;;4954394;28;93816;-61
2022/04/06 08:48:11;;;;;;;15.30;3.08;;;;;;;;;;4958547;28;92685;-60
2022/04/06 08:50:37;;;;;;;12.30;3.15;;;;;;;;;;4956224;28;92579;-62
2022/04/06 08:53:05;;;;;;;15.27;3.30;;;;;;;;;;4954455;28;92968;-60
2022/04/06 08:55:32;;;;;;;13.10;2.85;;;;;;;;;;4955375;28;92461;-59
2022/04/06 08:57:59;;;;;;;12.98;3.13;;;;;;;;;;4953082;28;95838;-59
2022/04/06 09:00:26;;;;;;;12.02;3.38;;;;;;;;;;4950964;28;93038;-60
2022/04/06 09:02:53;;;;;;;15.93;3.17;;;;;;;;;;4957768;28;93524;-61
2022/04/06 09:05:20;;;;;;;18.98;3.90;;;;;;;;;;4954039;28;94566;-61
2022/04/06 09:07:51;;;;;;;14.98;3.83;;;;;;;;;;4957035;28;92519;-60
2022/04/06 09:10:32;;;;;;;24.33;5.07;;;;;;;;;;4954191;28;93270;-61
2022/04/06 09:13:12;;;;;;;16.75;3.83;;;;;;;;;;4954743;28;94048;-61
2022/04/06 09:15:39;;;;;;;18.23;4.17;;;;;;;;;;4955580;28;93157;-60
2022/04/06 09:18:05;;;;;;;16.40;4.15;;;;;;;;;;4955689;28;94519;-61
2022/04/06 09:20:32;;;;;;;14.85;3.63;;;;;;;;;;4955254;28;92457;-61
2022/04/06 09:23:05;;;;;;;16.08;4.32;;;;;;;;;;4953204;28;94898;-61
2022/04/06 09:25:32;;;;;;;14.48;3.78;;;;;;;;;;4955875;28;94490;-61
2022/04/06 09:28:04;;;;;;;12.23;3.75;;;;;;;;;;4956111;28;92560;-62
2022/04/06 09:30:32;;;;;;;15.57;3.97;;;;;;;;;;4960048;28;93938;-61
2022/04/06 09:33:02;;;;;;;17.27;4.80;;;;;;;;;;4954482;28;92472;-60
2022/04/06 09:35:34;;;;;;;11.68;3.78;;;;;;;;;;4953117;28;92867;-61
2022/04/06 09:38:09;;;;;;;16.58;4.88;;;;;;;;;;4953519;28;93535;-61
2022/04/06 09:40:37;;;;;;;14.73;4.15;;;;;;;;;;4952786;28;91829;-61
2022/04/06 09:43:04;;;;;;;14.77;4.40;;;;;;;;;;4951373;28;93082;-62
2022/04/06 09:48:15;;;;;;;16.27;4.68;;;;;;;;;;4950409;28;95167;-61
2022/04/06 09:50:52;;;;;;;11.55;4.75;;;;;;;;;;4954257;28;94644;-61
2022/04/06 09:53:19;;;;;;;19.08;4.45;;;;;;;;;;4956576;28;93654;-61
2022/04/06 09:55:47;;;;;;;12.80;4.60;;;;;;;;;;4953162;28;93221;-61
2022/04/06 09:58:13;;;;;;;13.20;4.55;;;;;;;;;;4954687;28;93200;-61
2022/04/06 10:00:40;;;;;;;12.73;4.20;;;;;;;;;;4953640;28;92400;-61
2022/04/06 10:03:10;;;;;;;13.27;4.40;;;;;;;;;;4954441;28;94170;-60
2022/04/06 10:05:37;;;;;;;13.18;4.25;;;;;;;;;;4954180;28;91680;-60
2022/04/06 10:08:05;;;;;;;12.10;4.57;;;;;;;;;;4954153;28;92547;-60
2022/04/06 10:10:32;;;;;;;17.45;5.10;;;;;;;;;;4953586;28;92943;-61
2022/04/06 10:12:59;;;;;;;13.93;4.90;;;;;;;;;;4952211;28;96751;-60
2022/04/06 10:15:45;;;;;;;14.38;4.95;;;;;;;;;;4957113;28;92390;-60
2022/04/06 10:18:12;;;;;;;18.00;5.05;;;;;;;;;;4954349;28;94441;-60
2022/04/06 10:20:41;;;;;;;22.65;5.47;;;;;;;;;;4954057;28;92439;-62
2022/04/06 10:23:10;;;;;;;21.65;5.72;;;;;;;;;;4956148;28;94384;-60
2022/04/06 10:25:56;;;;;;;14.80;4.63;;;;;;;;;;4957606;28;93047;-60
2022/04/06 10:28:23;;;;;;;13.48;4.97;;;;;;;;;;4957680;28;92398;-61
2022/04/06 10:31:07;;;;;;;22.17;5.25;;;;;;;;;;4957032;28;92738;-61
2022/04/06 10:33:35;;;;;;;17.63;5.20;;;;;;;;;;4957236;28;93561;-61
2022/04/06 10:36:21;;;;;;;14.10;4.32;;;;;;;;;;4955626;28;92510;-60
2022/04/06 10:39:06;;;;;;;28.42;5.85;;;;;;;;;;4959054;28;94874;-60
2022/04/06 10:41:33;;;;;;;14.38;5.13;;;;;;;;;;4957432;28;92495;-61
2022/04/06 10:44:32;;;;;;;20.15;5.22;;;;;;;;;;4957180;28;94271;-62
2022/04/06 10:47:05;;;;;;;18.55;5.47;;;;;;;;;;4956816;28;94091;-60
2022/04/06 10:49:32;;;;;;;14.88;4.97;;;;;;;;;;4957517;28;92508;-61
2022/04/06 10:51:59;;;;;;;18.92;4.97;;;;;;;;;;4957138;28;93096;-60
2022/04/06 10:54:30;;;;;;;23.33;5.07;;;;;;;;;;4957135;28;93279;-61
2022/04/06 10:56:59;;;;;;;16.48;5.57;;;;;;;;;;4957677;28;91705;-61
2022/04/06 10:59:28;;;;;;;21.30;4.88;;;;;;;;;;4956907;28;92516;-61
2022/04/06 11:02:12;;;;;;;15.88;5.60;;;;;;;;;;4959723;28;93505;-60
2022/04/06 11:04:42;;;;;;;22.35;4.68;;;;;;;;;;4955560;28;95177;-60
2022/04/06 11:07:08;;;;;;;16.98;4.40;;;;;;;;;;4954543;28;94332;-62
2022/04/06 11:12:21;;;;;;;18.33;5.07;;;;;;;;;;4957288;28;93235;-60
2022/04/06 11:15:08;;;;;;;15.80;4.00;;;;;;;;;;4956441;28;93363;-60
2022/04/06 11:17:37;;;;;;;16.70;4.55;;;;;;;;;;4942991;28;92501;-61
2022/04/06 11:20:12;;;;;;;18.42;4.70;;;;;;;;;;4957210;28;92886;-62
2022/04/06 11:22:39;;;;;;;14.68;4.55;;;;;;;;;;4960250;28;93745;-61
2022/04/06 11:25:07;;;;;;;16.67;4.47;;;;;;;;;;4957038;28;92373;-61
2022/04/06 11:27:34;;;;;;;16.85;4.38;;;;;;;;;;4956351;28;94087;-61
2022/04/06 11:30:05;;;;;;;12.52;4.63;;;;;;;;;;4955012;28;94800;-61
2022/04/06 11:32:32;;;;;;;13.57;4.53;;;;;;;;;;4956371;28;95715;-61
2022/04/06 11:35:00;;;;;;;18.20;4.75;;;;;;;;;;4956090;28;93093;-61
2022/04/06 11:37:27;;;;;;;9.38;4.22;;;;;;;;;;4956478;28;92437;-61
2022/04/06 11:39:59;;;;;;;11.82;4.55;;;;;;;;;;4956328;28;92615;-61
2022/04/06 11:42:25;;;;;;;21.52;4.72;;;;;;;;;;4956615;28;94939;-62
2022/04/06 11:44:55;;;;;;;10.38;4.60;;;;;;;;;;4957372;28;92590;-61
2022/04/06 11:47:27;;;;;;;12.80;4.93;;;;;;;;;;4953408;28;91827;-61
2022/04/06 11:49:54;;;;;;;15.85;4.85;;;;;;;;;;4956046;28;92794;-61
2022/04/06 11:52:21;;;;;;;12.82;4.50;;;;;;;;;;4956335;28;92966;-61
2022/04/06 11:54:53;;;;;;;11.82;4.38;;;;;;;;;;4954633;28;96187;-61
2022/04/06 11:57:42;;;;;;;13.80;4.82;;;;;;;;;;4956436;28;92461;-61
2022/04/06 12:00:11;;;;;;;14.25;5.38;;;;;;;;;;4955975;28;94231;-61
2022/04/06 12:02:50;;;;;;;16.92;5.18;;;;;;;;;;4941295;28;94359;-60
2022/04/06 12:05:17;;;;;;;10.18;4.68;;;;;;;;;;4956427;28;92484;-61
2022/04/06 12:08:06;;;;;;;12.18;4.50;;;;;;;;;;4957705;28;94047;-62
2022/04/06 12:10:33;;;;;;;10.35;4.65;;;;;;;;;;4955352;28;92401;-61
2022/04/06 12:12:59;;;;;;;16.42;5.72;;;;;;;;;;4957106;28;94457;-60
2022/04/06 12:15:25;;;;;;;15.00;4.47;;;;;;;;;;4954847;28;94102;-60
2022/04/06 12:17:52;;;;;;;11.80;4.00;;;;;;;;;;4956189;28;92399;-61
2022/04/06 12:20:24;;;;;;;12.98;4.93;;;;;;;;;;4954637;28;94830;-61
2022/04/06 12:23:01;;;;;;;10.20;4.18;;;;;;;;;;4955802;28;93638;-61
2022/04/06 12:25:28;;;;;;;9.73;4.60;;;;;;;;;;4955963;28;92540;-61
2022/04/06 12:28:08;;;;;;;13.32;5.18;;;;;;;;;;4955742;28;93242;-61
2022/04/06 12:30:34;;;;;;;8.77;4.18;;;;;;;;;;4957848;28;93413;-60
2022/04/06 12:33:33;;;;;;;13.02;4.35;;;;;;;;;;4956082;28;95658;-61
2022/04/06 12:36:14;;;;;;;14.18;4.25;;;;;;;;;;4955703;28;93467;-60
2022/04/06 12:38:41;;;;;;;9.95;4.50;;;;;;;;;;4956031;28;91728;-61
2022/04/06 12:41:13;;;;;;;14.38;5.05;;;;;;;;;;4954463;28;93487;-61
2022/04/06 12:43:48;;;;;;;10.73;5.10;;;;;;;;;;4955287;28;93305;-61
2022/04/06 12:46:34;;;;;;;16.95;6.03;;;;;;;;;;4953519;28;94840;-61
2022/04/06 12:49:19;;;;;;;15.82;6.57;;;;;;;;;;4955301;28;95724;-61
2022/04/06 12:51:45;;;;;;;13.90;7.40;;;;;;;;;;4955135;28;93190;-61
2022/04/06 12:54:12;;;;;;;13.30;7.35;;;;;;;;;;4958976;28;92436;-63
2022/04/06 12:56:38;;;;;;;11.98;7.05;;;;;;;;;;4954939;28;93614;-61
2022/04/06 12:59:04;;;;;;;13.68;7.20;;;;;;;;;;4955385;28;92562;-61
2022/04/06 13:01:31;;;;;;;16.52;7.00;;;;;;;;;;4955583;28;93172;-60
2022/04/06 13:03:58;;;;;;;13.25;7.40;;;;;;;;;;4955959;28;92793;-60
2022/04/06 13:06:24;;;;;;;13.57;7.68;;;;;;;;;;4954284;28;92498;-62
2022/04/06 13:08:50;;;;;;;11.82;7.20;;;;;;;;;;4955474;28;93041;-60
2022/04/06 13:11:37;;;;;;;13.35;7.00;;;;;;;;;;4953828;28;95481;-61
2022/04/06 13:14:03;;;;;;;17.05;7.03;;;;;;;;;;4955376;28;92586;-61
2022/04/06 13:16:30;;;;;;;14.70;7.57;;;;;;;;;;4958027;28;93195;-61
2022/04/06 13:18:56;;;;;;;20.73;8.38;;;;;;;;;;4955005;28;92424;-61
2022/04/06 13:21:27;;;;;;;15.10;7.75;;;;;;;;;;4954699;28;93206;-61
2022/04/06 13:23:54;;;;;;;14.85;7.38;;;;;;;;;;4954312;28;93212;-60
2022/04/06 13:26:20;;;;;;;18.20;7.15;;;;;;;;;;4954492;28;92916;-60
2022/04/06 13:28:47;;;;;;;12.48;6.28;;;;;;;;;;4955616;28;93241;-61
2022/04/06 13:31:14;;;;;;;15.95;6.35;;;;;;;;;;4955145;28;93238;-59
2022/04/06 13:33:40;;;;;;;10.50;5.65;;;;;;;;;;4955127;28;92402;-59
2022/04/06 13:36:06;;;;;;;10.43;5.40;;;;;;;;;;4962250;28;94847;-59
2022/04/06 13:38:33;;;;;;;17.90;5.80;;;;;;;;;;4954439;28;92532;-59
2022/04/06 13:40:59;;;;;;;14.90;5.60;;;;;;;;;;4955257;28;93952;-59
2022/04/06 13:43:25;;;;;;;13.65;5.00;;;;;;;;;;4954561;28;93485;-61
2022/04/06 13:45:53;;;;;;;9.23;4.63;;;;;;;;;;4953496;28;92828;-60
2022/04/06 13:48:19;;;;;;;11.73;5.40;;;;;;;;;;4953168;28;94118;-60
2022/04/06 13:50:46;;;;;;;11.35;5.65;;;;;;;;;;4953471;28;93611;-61
2022/04/06 13:53:12;;;;;;;13.43;5.50;;;;;;;;;;4955263;28;91799;-60
2022/04/06 13:55:39;;;;;;;8.82;5.07;;;;;;;;;;4954443;28;93693;-60
2022/04/06 13:58:05;;;;;;;17.48;7.07;;;;;;;;;;4960320;28;93581;-61
2022/04/06 14:00:34;;;;;;;18.27;5.45;;;;;;;;;;4956903;28;94841;-62
2022/04/06 14:03:00;;;;;;;10.13;5.25;;;;;;;;;;4958051;28;94533;-60
2022/04/06 14:05:28;;;;;;;5.60;4.38;;;;;;;;;;4956705;28;92500;-60
2022/04/06 14:07:54;;;;;;;8.65;4.28;;;;;;;;;;4957711;28;92972;-61
2022/04/06 14:10:20;;;;;;;12.32;5.00;;;;;;;;;;4957197;28;93273;-61
2022/04/06 14:12:46;;;;;;;7.03;4.28;;;;;;;;;;4957773;28;93237;-60
2022/04/06 14:15:13;;;;;;;10.70;4.53;;;;;;;;;;4958520;28;93329;-62
2022/04/06 14:17:42;;;;;;;10.95;4.47;;;;;;;;;;4956662;28;93616;-61
2022/04/06 14:20:09;;;;;;;10.65;5.13;;;;;;;;;;4960527;28;92430;-61
2022/04/06 14:22:35;;;;;;;13.02;5.72;;;;;;;;;;4957715;28;94632;-61
2022/04/06 14:25:17;;;;;;;15.20;4.65;;;;;;;;;;4955350;28;96145;-62
2022/04/06 14:27:44;;;;;;;12.75;4.43;;;;;;;;;;4957971;28;96735;-61
2022/04/06 14:30:10;;;;;;;9.93;4.88;;;;;;;;;;4957114;28;92511;-60
2022/04/06 14:32:36;;;;;;;12.93;5.28;;;;;;;;;;4957414;28;92435;-61
2022/04/06 14:35:03;;;;;;;14.20;6.07;;;;;;;;;;4956465;28;93148;-61
2022/04/06 14:37:29;;;;;;;7.18;4.40;;;;;;;;;;4956601;28;94775;-61
2022/04/06 14:39:55;;;;;;;10.60;4.53;;;;;;;;;;4946667;28;92454;-61
2022/04/06 14:42:22;;;;;;;14.75;4.75;;;;;;;;;;4973391;28;92231;-62
2022/04/06 14:44:49;;;;;;;7.47;4.85;;;;;;;;;;4968074;28;92416;-60